sensor_id;sensor_type;location;lat;lon;timestamp;P1;durP1;ratioP1;P2;durP2;ratioP2
16654;SDS011;8441;51.344;7.022;2023-04-06T00:00:40;0.40;;;0.40;;
16654;SDS011;8441;51.344;7.022;2023-04-06T00:03:08;0.30;;;0.30;;
16654;SDS011;8441;51.344;7.022;2023-04-06T00:05:35;0.30;;;0.30;;
16654;SDS011;8441;51.344;7.022;2023-04-06T00:08:03;0.40;;;0.40;;
16654;SDS011;8441;51.344;7.022;2023-04-06T00:10:31;0.50;;;0.50;;
16654;SDS011;8441;51.344;7.022;2023-04-06T00:12:59;0.50;;;0.50;;
16654;SDS011;8441;51.344;7.022;2023-04-06T00:15:26;0.32;;;0.32;;
16654;SDS011;8441;51.344;7.022;2023-04-06T00:17:55;0.50;;;0.50;;
16654;SDS011;8441;51.344;7.022;2023-04-06T00:20:22;0.30;;;0.30;;
16654;SDS011;8441;51.344;7.022;2023-04-06T00:22:49;0.30;;;0.30;;
16654;SDS011;8441;51.344;7.022;2023-04-06T00:25:17;0.25;;;0.25;;
16654;SDS011;8441;51.344;7.022;2023-04-06T00:27:46;0.28;;;0.28;;
16654;SDS011;8441;51.344;7.022;2023-04-06T00:30:13;0.40;;;0.40;;
16654;SDS011;8441;51.344;7.022;2023-04-06T00:32:40;0.40;;;0.40;;
16654;SDS011;8441;51.344;7.022;2023-04-06T00:35:08;0.40;;;0.40;;
16654;SDS011;8441;51.344;7.022;2023-04-06T00:37:36;0.30;;;0.30;;
16654;SDS011;8441;51.344;7.022;2023-04-06T00:40:03;0.50;;;0.50;;
16654;SDS011;8441;51.344;7.022;2023-04-06T00:42:31;0.40;;;0.40;;
16654;SDS011;8441;51.344;7.022;2023-04-06T00:45:00;0.25;;;0.25;;
16654;SDS011;8441;51.344;7.022;2023-04-06T00:47:28;0.40;;;0.40;;
16654;SDS011;8441;51.344;7.022;2023-04-06T00:49:56;0.40;;;0.40;;
16654;SDS011;8441;51.344;7.022;2023-04-06T00:52:23;0.38;;;0.38;;
16654;SDS011;8441;51.344;7.022;2023-04-06T00:54:50;0.38;;;0.38;;
16654;SDS011;8441;51.344;7.022;2023-04-06T00:57:18;0.40;;;0.40;;
16654;SDS011;8441;51.344;7.022;2023-04-06T00:59:45;0.30;;;0.30;;
16654;SDS011;8441;51.344;7.022;2023-04-06T01:02:14;0.40;;;0.40;;
16654;SDS011;8441;51.344;7.022;2023-04-06T01:04:42;0.40;;;0.40;;
16654;SDS011;8441;51.344;7.022;2023-04-06T01:07:09;0.40;;;0.40;;
16654;SDS011;8441;51.344;7.022;2023-04-06T01:09:37;0.40;;;0.40;;
16654;SDS011;8441;51.344;7.022;2023-04-06T01:12:06;0.40;;;0.40;;
16654;SDS011;8441;51.344;7.022;2023-04-06T01:14:33;0.40;;;0.40;;
16654;SDS011;8441;51.344;7.022;2023-04-06T01:17:01;0.40;;;0.40;;
16654;SDS011;8441;51.344;7.022;2023-04-06T01:19:29;0.40;;;0.40;;
16654;SDS011;8441;51.344;7.022;2023-04-06T01:21:57;0.60;;;0.60;;
16654;SDS011;8441;51.344;7.022;2023-04-06T01:24:27;0.43;;;0.43;;
16654;SDS011;8441;51.344;7.022;2023-04-06T01:26:55;0.40;;;0.40;;
16654;SDS011;8441;51.344;7.022;2023-04-06T01:29:22;0.40;;;0.40;;
16654;SDS011;8441;51.344;7.022;2023-04-06T01:31:49;0.30;;;0.30;;
16654;SDS011;8441;51.344;7.022;2023-04-06T01:34:17;0.40;;;0.40;;
16654;SDS011;8441;51.344;7.022;2023-04-06T01:36:44;0.40;;;0.40;;
16654;SDS011;8441;51.344;7.022;2023-04-06T01:39:11;0.40;;;0.40;;
16654;SDS011;8441;51.344;7.022;2023-04-06T01:41:40;0.30;;;0.30;;
16654;SDS011;8441;51.344;7.022;2023-04-06T01:44:07;0.50;;;0.50;;
16654;SDS011;8441;51.344;7.022;2023-04-06T01:46:35;0.50;;;0.50;;
16654;SDS011;8441;51.344;7.022;2023-04-06T01:49:02;0.40;;;0.40;;
16654;SDS011;8441;51.344;7.022;2023-04-06T01:54:34;0.50;;;0.50;;
16654;SDS011;8441;51.344;7.022;2023-04-06T01:57:03;0.40;;;0.40;;
16654;SDS011;8441;51.344;7.022;2023-04-06T01:59:30;0.47;;;0.47;;
16654;SDS011;8441;51.344;7.022;2023-04-06T02:01:58;0.40;;;0.40;;
16654;SDS011;8441;51.344;7.022;2023-04-06T02:04:25;0.40;;;0.40;;
16654;SDS011;8441;51.344;7.022;2023-04-06T02:06:52;0.40;;;0.40;;
16654;SDS011;8441;51.344;7.022;2023-04-06T02:09:19;0.43;;;0.43;;
16654;SDS011;8441;51.344;7.022;2023-04-06T02:11:46;0.40;;;0.40;;
16654;SDS011;8441;51.344;7.022;2023-04-06T02:14:15;0.40;;;0.40;;
16654;SDS011;8441;51.344;7.022;2023-04-06T02:16:43;0.40;;;0.40;;
16654;SDS011;8441;51.344;7.022;2023-04-06T02:19:10;0.43;;;0.43;;
16654;SDS011;8441;51.344;7.022;2023-04-06T02:21:37;0.45;;;0.45;;
16654;SDS011;8441;51.344;7.022;2023-04-06T02:24:05;0.30;;;0.30;;
16654;SDS011;8441;51.344;7.022;2023-04-06T02:26:32;0.40;;;0.40;;
16654;SDS011;8441;51.344;7.022;2023-04-06T02:29:00;0.60;;;0.60;;
16654;SDS011;8441;51.344;7.022;2023-04-06T02:31:28;0.32;;;0.32;;
16654;SDS011;8441;51.344;7.022;2023-04-06T02:33:56;0.47;;;0.47;;
16654;SDS011;8441;51.344;7.022;2023-04-06T02:36:23;0.50;;;0.50;;
16654;SDS011;8441;51.344;7.022;2023-04-06T02:38:51;0.40;;;0.40;;
16654;SDS011;8441;51.344;7.022;2023-04-06T02:41:18;0.40;;;0.40;;
16654;SDS011;8441;51.344;7.022;2023-04-06T02:43:45;0.40;;;0.40;;
16654;SDS011;8441;51.344;7.022;2023-04-06T02:46:13;0.50;;;0.50;;
16654;SDS011;8441;51.344;7.022;2023-04-06T02:48:41;0.40;;;0.40;;
16654;SDS011;8441;51.344;7.022;2023-04-06T02:51:09;0.40;;;0.40;;
16654;SDS011;8441;51.344;7.022;2023-04-06T02:53:36;0.30;;;0.30;;
16654;SDS011;8441;51.344;7.022;2023-04-06T02:56:04;0.47;;;0.47;;
16654;SDS011;8441;51.344;7.022;2023-04-06T02:58:31;0.40;;;0.40;;
16654;SDS011;8441;51.344;7.022;2023-04-06T03:00:59;0.50;;;0.50;;
16654;SDS011;8441;51.344;7.022;2023-04-06T03:03:26;0.50;;;0.50;;
16654;SDS011;8441;51.344;7.022;2023-04-06T03:05:55;0.40;;;0.40;;
16654;SDS011;8441;51.344;7.022;2023-04-06T03:08:23;0.40;;;0.40;;
16654;SDS011;8441;51.344;7.022;2023-04-06T03:10:51;0.40;;;0.40;;
16654;SDS011;8441;51.344;7.022;2023-04-06T03:13:18;0.40;;;0.40;;
16654;SDS011;8441;51.344;7.022;2023-04-06T03:15:45;0.50;;;0.50;;
16654;SDS011;8441;51.344;7.022;2023-04-06T03:18:13;0.50;;;0.50;;
16654;SDS011;8441;51.344;7.022;2023-04-06T03:20:40;0.50;;;0.50;;
16654;SDS011;8441;51.344;7.022;2023-04-06T03:23:09;0.43;;;0.43;;
16654;SDS011;8441;51.344;7.022;2023-04-06T03:25:36;0.50;;;0.50;;
16654;SDS011;8441;51.344;7.022;2023-04-06T03:28:04;0.50;;;0.50;;
16654;SDS011;8441;51.344;7.022;2023-04-06T03:30:31;0.47;;;0.47;;
16654;SDS011;8441;51.344;7.022;2023-04-06T03:32:59;0.50;;;0.50;;
16654;SDS011;8441;51.344;7.022;2023-04-06T03:35:26;0.40;;;0.40;;
16654;SDS011;8441;51.344;7.022;2023-04-06T03:37:53;0.50;;;0.50;;
16654;SDS011;8441;51.344;7.022;2023-04-06T03:40:22;0.47;;;0.47;;
16654;SDS011;8441;51.344;7.022;2023-04-06T03:42:50;0.40;;;0.40;;
16654;SDS011;8441;51.344;7.022;2023-04-06T03:45:17;0.38;;;0.38;;
16654;SDS011;8441;51.344;7.022;2023-04-06T03:47:45;0.40;;;0.40;;
16654;SDS011;8441;51.344;7.022;2023-04-06T03:50:12;0.47;;;0.47;;
16654;SDS011;8441;51.344;7.022;2023-04-06T03:52:40;0.50;;;0.50;;
16654;SDS011;8441;51.344;7.022;2023-04-06T03:55:08;0.45;;;0.45;;
16654;SDS011;8441;51.344;7.022;2023-04-06T03:57:36;0.47;;;0.47;;
16654;SDS011;8441;51.344;7.022;2023-04-06T04:00:04;0.50;;;0.50;;
16654;SDS011;8441;51.344;7.022;2023-04-06T04:02:33;0.40;;;0.40;;
16654;SDS011;8441;51.344;7.022;2023-04-06T04:05:00;0.40;;;0.40;;
16654;SDS011;8441;51.344;7.022;2023-04-06T04:07:27;0.40;;;0.40;;
16654;SDS011;8441;51.344;7.022;2023-04-06T04:09:55;0.50;;;0.50;;
16654;SDS011;8441;51.344;7.022;2023-04-06T04:12:22;0.50;;;0.50;;
16654;SDS011;8441;51.344;7.022;2023-04-06T04:14:51;0.50;;;0.50;;
16654;SDS011;8441;51.344;7.022;2023-04-06T04:17:19;0.50;;;0.50;;
16654;SDS011;8441;51.344;7.022;2023-04-06T04:19:47;0.40;;;0.40;;
16654;SDS011;8441;51.344;7.022;2023-04-06T04:22:15;0.50;;;0.50;;
16654;SDS011;8441;51.344;7.022;2023-04-06T04:24:42;0.50;;;0.50;;
16654;SDS011;8441;51.344;7.022;2023-04-06T04:27:09;0.40;;;0.40;;
16654;SDS011;8441;51.344;7.022;2023-04-06T04:29:37;0.40;;;0.40;;
16654;SDS011;8441;51.344;7.022;2023-04-06T04:32:06;0.40;;;0.40;;
16654;SDS011;8441;51.344;7.022;2023-04-06T04:34:33;0.30;;;0.30;;
16654;SDS011;8441;51.344;7.022;2023-04-06T04:37:00;0.50;;;0.50;;
16654;SDS011;8441;51.344;7.022;2023-04-06T04:39:28;0.50;;;0.50;;
16654;SDS011;8441;51.344;7.022;2023-04-06T04:41:55;0.60;;;0.60;;
16654;SDS011;8441;51.344;7.022;2023-04-06T04:44:22;0.50;;;0.50;;
16654;SDS011;8441;51.344;7.022;2023-04-06T04:46:50;0.43;;;0.43;;
16654;SDS011;8441;51.344;7.022;2023-04-06T04:49:18;0.43;;;0.43;;
16654;SDS011;8441;51.344;7.022;2023-04-06T04:51:45;0.40;;;0.40;;
16654;SDS011;8441;51.344;7.022;2023-04-06T04:54:13;0.43;;;0.43;;
16654;SDS011;8441;51.344;7.022;2023-04-06T04:56:40;0.50;;;0.50;;
16654;SDS011;8441;51.344;7.022;2023-04-06T04:59:07;0.40;;;0.40;;
16654;SDS011;8441;51.344;7.022;2023-04-06T05:01:34;0.30;;;0.30;;
16654;SDS011;8441;51.344;7.022;2023-04-06T05:04:02;0.50;;;0.50;;
16654;SDS011;8441;51.344;7.022;2023-04-06T05:06:30;0.47;;;0.47;;
16654;SDS011;8441;51.344;7.022;2023-04-06T05:08:58;0.50;;;0.50;;
16654;SDS011;8441;51.344;7.022;2023-04-06T05:11:25;0.40;;;0.40;;
16654;SDS011;8441;51.344;7.022;2023-04-06T05:13:53;0.50;;;0.50;;
16654;SDS011;8441;51.344;7.022;2023-04-06T05:16:20;0.47;;;0.47;;
16654;SDS011;8441;51.344;7.022;2023-04-06T05:18:48;0.50;;;0.50;;
16654;SDS011;8441;51.344;7.022;2023-04-06T05:21:15;0.40;;;0.40;;
16654;SDS011;8441;51.344;7.022;2023-04-06T05:23:44;0.40;;;0.40;;
16654;SDS011;8441;51.344;7.022;2023-04-06T05:26:11;0.50;;;0.50;;
16654;SDS011;8441;51.344;7.022;2023-04-06T05:28:38;0.40;;;0.40;;
16654;SDS011;8441;51.344;7.022;2023-04-06T05:31:07;0.32;;;0.32;;
16654;SDS011;8441;51.344;7.022;2023-04-06T05:33:34;0.60;;;0.60;;
16654;SDS011;8441;51.344;7.022;2023-04-06T05:36:02;0.35;;;0.35;;
16654;SDS011;8441;51.344;7.022;2023-04-06T05:38:32;0.47;;;0.47;;
16654;SDS011;8441;51.344;7.022;2023-04-06T05:41:01;0.30;;;0.30;;
16654;SDS011;8441;51.344;7.022;2023-04-06T05:43:28;0.50;;;0.50;;
16654;SDS011;8441;51.344;7.022;2023-04-06T05:45:55;0.20;;;0.20;;
16654;SDS011;8441;51.344;7.022;2023-04-06T05:48:22;0.40;;;0.40;;
16654;SDS011;8441;51.344;7.022;2023-04-06T05:50:50;0.30;;;0.30;;
16654;SDS011;8441;51.344;7.022;2023-04-06T05:53:18;0.40;;;0.40;;
16654;SDS011;8441;51.344;7.022;2023-04-06T05:55:46;0.35;;;0.35;;
16654;SDS011;8441;51.344;7.022;2023-04-06T05:58:15;0.40;;;0.40;;
16654;SDS011;8441;51.344;7.022;2023-04-06T06:00:42;0.40;;;0.40;;
16654;SDS011;8441;51.344;7.022;2023-04-06T06:03:11;0.40;;;0.40;;
16654;SDS011;8441;51.344;7.022;2023-04-06T06:05:40;0.40;;;0.40;;
16654;SDS011;8441;51.344;7.022;2023-04-06T06:08:07;0.30;;;0.30;;
16654;SDS011;8441;51.344;7.022;2023-04-06T06:10:35;0.40;;;0.40;;
16654;SDS011;8441;51.344;7.022;2023-04-06T06:13:04;0.30;;;0.30;;
16654;SDS011;8441;51.344;7.022;2023-04-06T06:15:33;0.47;;;0.47;;
16654;SDS011;8441;51.344;7.022;2023-04-06T06:18:00;0.40;;;0.40;;
16654;SDS011;8441;51.344;7.022;2023-04-06T06:20:27;0.40;;;0.40;;
16654;SDS011;8441;51.344;7.022;2023-04-06T06:22:54;0.40;;;0.40;;
16654;SDS011;8441;51.344;7.022;2023-04-06T06:25:22;0.40;;;0.40;;
16654;SDS011;8441;51.344;7.022;2023-04-06T06:27:49;0.40;;;0.40;;
16654;SDS011;8441;51.344;7.022;2023-04-06T06:30:16;0.40;;;0.40;;
16654;SDS011;8441;51.344;7.022;2023-04-06T06:32:45;0.40;;;0.40;;
16654;SDS011;8441;51.344;7.022;2023-04-06T06:35:12;0.40;;;0.40;;
16654;SDS011;8441;51.344;7.022;2023-04-06T06:37:40;0.20;;;0.20;;
16654;SDS011;8441;51.344;7.022;2023-04-06T06:40:08;0.40;;;0.40;;
16654;SDS011;8441;51.344;7.022;2023-04-06T06:42:38;0.30;;;0.30;;
16654;SDS011;8441;51.344;7.022;2023-04-06T06:45:06;0.40;;;0.40;;
16654;SDS011;8441;51.344;7.022;2023-04-06T06:47:34;0.40;;;0.40;;
16654;SDS011;8441;51.344;7.022;2023-04-06T06:50:03;0.40;;;0.40;;
16654;SDS011;8441;51.344;7.022;2023-04-06T06:52:31;0.50;;;0.50;;
16654;SDS011;8441;51.344;7.022;2023-04-06T06:54:58;0.40;;;0.40;;
16654;SDS011;8441;51.344;7.022;2023-04-06T06:57:25;0.30;;;0.30;;
16654;SDS011;8441;51.344;7.022;2023-04-06T06:59:53;0.40;;;0.40;;
16654;SDS011;8441;51.344;7.022;2023-04-06T07:02:20;0.40;;;0.40;;
16654;SDS011;8441;51.344;7.022;2023-04-06T07:04:47;0.50;;;0.50;;
16654;SDS011;8441;51.344;7.022;2023-04-06T07:07:16;0.38;;;0.38;;
16654;SDS011;8441;51.344;7.022;2023-04-06T07:09:43;0.40;;;0.40;;
16654;SDS011;8441;51.344;7.022;2023-04-06T07:12:10;0.40;;;0.40;;
16654;SDS011;8441;51.344;7.022;2023-04-06T07:14:38;0.40;;;0.40;;
16654;SDS011;8441;51.344;7.022;2023-04-06T07:17:06;0.30;;;0.30;;
16654;SDS011;8441;51.344;7.022;2023-04-06T07:19:33;0.30;;;0.30;;
16654;SDS011;8441;51.344;7.022;2023-04-06T07:22:00;0.40;;;0.40;;
16654;SDS011;8441;51.344;7.022;2023-04-06T07:24:29;0.40;;;0.40;;
16654;SDS011;8441;51.344;7.022;2023-04-06T07:26:57;0.30;;;0.30;;
16654;SDS011;8441;51.344;7.022;2023-04-06T07:29:25;0.30;;;0.30;;
16654;SDS011;8441;51.344;7.022;2023-04-06T07:31:53;0.30;;;0.30;;
16654;SDS011;8441;51.344;7.022;2023-04-06T07:34:20;0.40;;;0.40;;
16654;SDS011;8441;51.344;7.022;2023-04-06T07:36:47;0.30;;;0.30;;
16654;SDS011;8441;51.344;7.022;2023-04-06T07:39:14;0.30;;;0.30;;
16654;SDS011;8441;51.344;7.022;2023-04-06T07:41:43;0.30;;;0.30;;
16654;SDS011;8441;51.344;7.022;2023-04-06T07:44:10;0.50;;;0.50;;
16654;SDS011;8441;51.344;7.022;2023-04-06T07:46:38;0.40;;;0.40;;
16654;SDS011;8441;51.344;7.022;2023-04-06T07:49:05;0.30;;;0.30;;
16654;SDS011;8441;51.344;7.022;2023-04-06T07:51:32;0.20;;;0.20;;
16654;SDS011;8441;51.344;7.022;2023-04-06T07:54:02;0.30;;;0.30;;
16654;SDS011;8441;51.344;7.022;2023-04-06T07:56:30;0.30;;;0.30;;
16654;SDS011;8441;51.344;7.022;2023-04-06T07:58:58;0.30;;;0.30;;
16654;SDS011;8441;51.344;7.022;2023-04-06T08:01:26;0.30;;;0.30;;
16654;SDS011;8441;51.344;7.022;2023-04-06T08:03:54;0.28;;;0.28;;
16654;SDS011;8441;51.344;7.022;2023-04-06T08:06:22;0.30;;;0.30;;
16654;SDS011;8441;51.344;7.022;2023-04-06T08:08:49;0.20;;;0.20;;
16654;SDS011;8441;51.344;7.022;2023-04-06T08:11:17;0.30;;;0.30;;
16654;SDS011;8441;51.344;7.022;2023-04-06T08:13:44;0.30;;;0.30;;
16654;SDS011;8441;51.344;7.022;2023-04-06T08:16:13;0.22;;;0.22;;
16654;SDS011;8441;51.344;7.022;2023-04-06T08:18:40;0.30;;;0.30;;
16654;SDS011;8441;51.344;7.022;2023-04-06T08:21:07;0.30;;;0.30;;
16654;SDS011;8441;51.344;7.022;2023-04-06T08:23:34;0.28;;;0.28;;
16654;SDS011;8441;51.344;7.022;2023-04-06T08:26:02;0.30;;;0.30;;
16654;SDS011;8441;51.344;7.022;2023-04-06T08:28:29;0.30;;;0.30;;
16654;SDS011;8441;51.344;7.022;2023-04-06T08:30:56;0.20;;;0.20;;
16654;SDS011;8441;51.344;7.022;2023-04-06T08:33:25;0.28;;;0.28;;
16654;SDS011;8441;51.344;7.022;2023-04-06T08:35:52;0.20;;;0.20;;
16654;SDS011;8441;51.344;7.022;2023-04-06T08:38:19;0.20;;;0.20;;
16654;SDS011;8441;51.344;7.022;2023-04-06T08:40:47;0.20;;;0.20;;
16654;SDS011;8441;51.344;7.022;2023-04-06T08:43:16;0.20;;;0.20;;
16654;SDS011;8441;51.344;7.022;2023-04-06T08:45:46;0.20;;;0.20;;
16654;SDS011;8441;51.344;7.022;2023-04-06T08:48:14;0.30;;;0.30;;
16654;SDS011;8441;51.344;7.022;2023-04-06T08:50:44;0.10;;;0.10;;
16654;SDS011;8441;51.344;7.022;2023-04-06T08:53:12;0.15;;;0.15;;
16654;SDS011;8441;51.344;7.022;2023-04-06T08:55:41;0.20;;;0.20;;
16654;SDS011;8441;51.344;7.022;2023-04-06T08:58:09;0.20;;;0.20;;
16654;SDS011;8441;51.344;7.022;2023-04-06T09:00:37;0.10;;;0.10;;
16654;SDS011;8441;51.344;7.022;2023-04-06T09:03:05;0.20;;;0.20;;
16654;SDS011;8441;51.344;7.022;2023-04-06T09:05:34;0.20;;;0.20;;
16654;SDS011;8441;51.344;7.022;2023-04-06T09:08:03;0.20;;;0.20;;
16654;SDS011;8441;51.344;7.022;2023-04-06T09:10:31;0.20;;;0.20;;
16654;SDS011;8441;51.344;7.022;2023-04-06T09:13:02;0.10;;;0.10;;
16654;SDS011;8441;51.344;7.022;2023-04-06T09:15:31;0.20;;;0.20;;
16654;SDS011;8441;51.344;7.022;2023-04-06T09:17:58;0.10;;;0.10;;
16654;SDS011;8441;51.344;7.022;2023-04-06T09:20:25;0.20;;;0.20;;
16654;SDS011;8441;51.344;7.022;2023-04-06T09:22:53;0.13;;;0.13;;
16654;SDS011;8441;51.344;7.022;2023-04-06T09:25:23;0.20;;;0.20;;
16654;SDS011;8441;51.344;7.022;2023-04-06T09:27:58;0.20;;;0.20;;
16654;SDS011;8441;51.344;7.022;2023-04-06T09:30:26;0.20;;;0.20;;
16654;SDS011;8441;51.344;7.022;2023-04-06T09:32:54;0.10;;;0.10;;
16654;SDS011;8441;51.344;7.022;2023-04-06T09:35:22;0.10;;;0.10;;
16654;SDS011;8441;51.344;7.022;2023-04-06T09:37:51;0.20;;;0.20;;
16654;SDS011;8441;51.344;7.022;2023-04-06T09:40:20;0.20;;;0.20;;
16654;SDS011;8441;51.344;7.022;2023-04-06T09:42:49;0.20;;;0.20;;
16654;SDS011;8441;51.344;7.022;2023-04-06T09:45:19;0.17;;;0.17;;
16654;SDS011;8441;51.344;7.022;2023-04-06T09:47:47;0.20;;;0.20;;
16654;SDS011;8441;51.344;7.022;2023-04-06T09:50:15;0.20;;;0.20;;
16654;SDS011;8441;51.344;7.022;2023-04-06T09:52:45;0.17;;;0.17;;
16654;SDS011;8441;51.344;7.022;2023-04-06T09:55:17;0.20;;;0.20;;
16654;SDS011;8441;51.344;7.022;2023-04-06T09:57:53;0.20;;;0.20;;
16654;SDS011;8441;51.344;7.022;2023-04-06T10:00:26;0.10;;;0.10;;
16654;SDS011;8441;51.344;7.022;2023-04-06T10:02:56;0.20;;;0.20;;
16654;SDS011;8441;51.344;7.022;2023-04-06T10:05:30;0.10;;;0.10;;
16654;SDS011;8441;51.344;7.022;2023-04-06T10:08:05;0.20;;;0.20;;
16654;SDS011;8441;51.344;7.022;2023-04-06T10:10:35;0.10;;;0.10;;
16654;SDS011;8441;51.344;7.022;2023-04-06T10:13:04;0.10;;;0.10;;
16654;SDS011;8441;51.344;7.022;2023-04-06T10:15:32;0.10;;;0.10;;
16654;SDS011;8441;51.344;7.022;2023-04-06T10:18:00;0.10;;;0.10;;
16654;SDS011;8441;51.344;7.022;2023-04-06T10:20:29;0.10;;;0.10;;
16654;SDS011;8441;51.344;7.022;2023-04-06T10:23:04;0.20;;;0.20;;
16654;SDS011;8441;51.344;7.022;2023-04-06T10:25:39;0.10;;;0.10;;
16654;SDS011;8441;51.344;7.022;2023-04-06T10:28:08;0.20;;;0.20;;
16654;SDS011;8441;51.344;7.022;2023-04-06T10:30:41;0.10;;;0.10;;
16654;SDS011;8441;51.344;7.022;2023-04-06T10:33:12;0.15;;;0.15;;
16654;SDS011;8441;51.344;7.022;2023-04-06T10:35:40;0.10;;;0.10;;
16654;SDS011;8441;51.344;7.022;2023-04-06T10:38:08;0.15;;;0.15;;
16654;SDS011;8441;51.344;7.022;2023-04-06T10:40:36;0.17;;;0.17;;
16654;SDS011;8441;51.344;7.022;2023-04-06T10:43:09;0.10;;;0.10;;
16654;SDS011;8441;51.344;7.022;2023-04-06T10:45:37;0.13;;;0.13;;
16654;SDS011;8441;51.344;7.022;2023-04-06T10:48:15;0.10;;;0.10;;
16654;SDS011;8441;51.344;7.022;2023-04-06T10:50:43;0.10;;;0.10;;
16654;SDS011;8441;51.344;7.022;2023-04-06T10:53:11;0.10;;;0.10;;
16654;SDS011;8441;51.344;7.022;2023-04-06T10:55:47;0.10;;;0.10;;
16654;SDS011;8441;51.344;7.022;2023-04-06T10:58:18;0.20;;;0.20;;
16654;SDS011;8441;51.344;7.022;2023-04-06T11:00:45;0.20;;;0.20;;
16654;SDS011;8441;51.344;7.022;2023-04-06T11:03:13;0.10;;;0.10;;
16654;SDS011;8441;51.344;7.022;2023-04-06T11:05:43;0.20;;;0.20;;
16654;SDS011;8441;51.344;7.022;2023-04-06T11:08:11;0.10;;;0.10;;
16654;SDS011;8441;51.344;7.022;2023-04-06T11:10:48;0.20;;;0.20;;
16654;SDS011;8441;51.344;7.022;2023-04-06T11:13:17;0.10;;;0.10;;
16654;SDS011;8441;51.344;7.022;2023-04-06T11:15:44;0.20;;;0.20;;
16654;SDS011;8441;51.344;7.022;2023-04-06T11:18:16;0.20;;;0.20;;
16654;SDS011;8441;51.344;7.022;2023-04-06T11:20:47;0.10;;;0.10;;
16654;SDS011;8441;51.344;7.022;2023-04-06T11:23:21;0.10;;;0.10;;
16654;SDS011;8441;51.344;7.022;2023-04-06T11:25:50;0.10;;;0.10;;
16654;SDS011;8441;51.344;7.022;2023-04-06T11:28:19;0.10;;;0.10;;
16654;SDS011;8441;51.344;7.022;2023-04-06T11:30:47;0.10;;;0.10;;
16654;SDS011;8441;51.344;7.022;2023-04-06T11:33:19;0.10;;;0.10;;
16654;SDS011;8441;51.344;7.022;2023-04-06T11:35:48;0.13;;;0.13;;
16654;SDS011;8441;51.344;7.022;2023-04-06T11:38:16;0.10;;;0.10;;
16654;SDS011;8441;51.344;7.022;2023-04-06T11:40:45;0.10;;;0.10;;
16654;SDS011;8441;51.344;7.022;2023-04-06T11:43:12;0.10;;;0.10;;
16654;SDS011;8441;51.344;7.022;2023-04-06T11:45:42;0.10;;;0.10;;
16654;SDS011;8441;51.344;7.022;2023-04-06T11:48:17;0.10;;;0.10;;
16654;SDS011;8441;51.344;7.022;2023-04-06T11:50:48;0.20;;;0.20;;
16654;SDS011;8441;51.344;7.022;2023-04-06T11:53:21;0.10;;;0.10;;
16654;SDS011;8441;51.344;7.022;2023-04-06T11:55:48;0.10;;;0.10;;
16654;SDS011;8441;51.344;7.022;2023-04-06T11:58:15;0.13;;;0.13;;
16654;SDS011;8441;51.344;7.022;2023-04-06T12:00:44;0.10;;;0.10;;
16654;SDS011;8441;51.344;7.022;2023-04-06T12:03:12;0.10;;;0.10;;
16654;SDS011;8441;51.344;7.022;2023-04-06T12:05:39;0.10;;;0.10;;
16654;SDS011;8441;51.344;7.022;2023-04-06T12:08:06;0.10;;;0.10;;
16654;SDS011;8441;51.344;7.022;2023-04-06T12:10:34;0.10;;;0.10;;
16654;SDS011;8441;51.344;7.022;2023-04-06T12:13:01;0.10;;;0.10;;
16654;SDS011;8441;51.344;7.022;2023-04-06T12:15:28;0.10;;;0.10;;
16654;SDS011;8441;51.344;7.022;2023-04-06T12:17:57;0.10;;;0.10;;
16654;SDS011;8441;51.344;7.022;2023-04-06T12:20:24;0.17;;;0.17;;
16654;SDS011;8441;51.344;7.022;2023-04-06T12:22:52;0.10;;;0.10;;
16654;SDS011;8441;51.344;7.022;2023-04-06T12:25:19;0.10;;;0.10;;
16654;SDS011;8441;51.344;7.022;2023-04-06T12:27:46;0.10;;;0.10;;
16654;SDS011;8441;51.344;7.022;2023-04-06T12:30:14;0.10;;;0.10;;
16654;SDS011;8441;51.344;7.022;2023-04-06T12:32:41;0.10;;;0.10;;
16654;SDS011;8441;51.344;7.022;2023-04-06T12:35:10;0.10;;;0.10;;
16654;SDS011;8441;51.344;7.022;2023-04-06T12:37:40;0.10;;;0.10;;
16654;SDS011;8441;51.344;7.022;2023-04-06T12:40:08;0.10;;;0.10;;
16654;SDS011;8441;51.344;7.022;2023-04-06T12:42:38;0.20;;;0.20;;
16654;SDS011;8441;51.344;7.022;2023-04-06T12:45:07;0.20;;;0.20;;
16654;SDS011;8441;51.344;7.022;2023-04-06T12:47:34;0.15;;;0.15;;
16654;SDS011;8441;51.344;7.022;2023-04-06T12:50:03;0.15;;;0.15;;
16654;SDS011;8441;51.344;7.022;2023-04-06T12:52:33;0.10;;;0.10;;
16654;SDS011;8441;51.344;7.022;2023-04-06T12:55:01;0.10;;;0.10;;
16654;SDS011;8441;51.344;7.022;2023-04-06T12:57:30;0.15;;;0.15;;
16654;SDS011;8441;51.344;7.022;2023-04-06T12:59:57;0.10;;;0.10;;
16654;SDS011;8441;51.344;7.022;2023-04-06T13:02:25;0.10;;;0.10;;
16654;SDS011;8441;51.344;7.022;2023-04-06T13:04:52;0.10;;;0.10;;
16654;SDS011;8441;51.344;7.022;2023-04-06T13:07:19;0.10;;;0.10;;
16654;SDS011;8441;51.344;7.022;2023-04-06T13:09:48;0.10;;;0.10;;
16654;SDS011;8441;51.344;7.022;2023-04-06T13:12:15;0.10;;;0.10;;
16654;SDS011;8441;51.344;7.022;2023-04-06T13:14:43;0.10;;;0.10;;
16654;SDS011;8441;51.344;7.022;2023-04-06T13:17:12;0.10;;;0.10;;
16654;SDS011;8441;51.344;7.022;2023-04-06T13:19:40;0.10;;;0.10;;
16654;SDS011;8441;51.344;7.022;2023-04-06T13:22:07;0.13;;;0.13;;
16654;SDS011;8441;51.344;7.022;2023-04-06T13:24:34;0.10;;;0.10;;
16654;SDS011;8441;51.344;7.022;2023-04-06T13:27:03;0.10;;;0.10;;
16654;SDS011;8441;51.344;7.022;2023-04-06T13:29:30;0.10;;;0.10;;
16654;SDS011;8441;51.344;7.022;2023-04-06T13:31:59;0.10;;;0.10;;
16654;SDS011;8441;51.344;7.022;2023-04-06T13:34:26;0.10;;;0.10;;
16654;SDS011;8441;51.344;7.022;2023-04-06T13:36:53;0.10;;;0.10;;
16654;SDS011;8441;51.344;7.022;2023-04-06T13:39:21;0.10;;;0.10;;
16654;SDS011;8441;51.344;7.022;2023-04-06T13:41:48;0.10;;;0.10;;
16654;SDS011;8441;51.344;7.022;2023-04-06T13:44:16;0.10;;;0.10;;
16654;SDS011;8441;51.344;7.022;2023-04-06T13:46:44;0.20;;;0.20;;
16654;SDS011;8441;51.344;7.022;2023-04-06T13:49:11;0.10;;;0.10;;
16654;SDS011;8441;51.344;7.022;2023-04-06T13:51:38;0.20;;;0.20;;
16654;SDS011;8441;51.344;7.022;2023-04-06T13:54:06;0.20;;;0.20;;
16654;SDS011;8441;51.344;7.022;2023-04-06T13:56:33;0.10;;;0.10;;
16654;SDS011;8441;51.344;7.022;2023-04-06T13:59:00;0.10;;;0.10;;
16654;SDS011;8441;51.344;7.022;2023-04-06T14:01:30;0.10;;;0.10;;
16654;SDS011;8441;51.344;7.022;2023-04-06T14:03:57;0.10;;;0.10;;
16654;SDS011;8441;51.344;7.022;2023-04-06T14:06:24;0.10;;;0.10;;
16654;SDS011;8441;51.344;7.022;2023-04-06T14:08:51;0.10;;;0.10;;
16654;SDS011;8441;51.344;7.022;2023-04-06T14:11:19;0.20;;;0.20;;
16654;SDS011;8441;51.344;7.022;2023-04-06T14:13:46;0.10;;;0.10;;
16654;SDS011;8441;51.344;7.022;2023-04-06T14:16:13;0.10;;;0.10;;
16654;SDS011;8441;51.344;7.022;2023-04-06T14:18:41;0.20;;;0.20;;
16654;SDS011;8441;51.344;7.022;2023-04-06T14:21:08;0.10;;;0.10;;
16654;SDS011;8441;51.344;7.022;2023-04-06T14:23:36;0.10;;;0.10;;
16654;SDS011;8441;51.344;7.022;2023-04-06T14:26:04;0.20;;;0.20;;
16654;SDS011;8441;51.344;7.022;2023-04-06T14:28:33;0.20;;;0.20;;
16654;SDS011;8441;51.344;7.022;2023-04-06T14:31:02;0.20;;;0.20;;
16654;SDS011;8441;51.344;7.022;2023-04-06T14:33:36;0.10;;;0.10;;
16654;SDS011;8441;51.344;7.022;2023-04-06T14:36:05;0.10;;;0.10;;
16654;SDS011;8441;51.344;7.022;2023-04-06T14:38:32;0.20;;;0.20;;
16654;SDS011;8441;51.344;7.022;2023-04-06T14:41:00;0.10;;;0.10;;
16654;SDS011;8441;51.344;7.022;2023-04-06T14:43:27;0.10;;;0.10;;
16654;SDS011;8441;51.344;7.022;2023-04-06T14:45:59;0.20;;;0.20;;
16654;SDS011;8441;51.344;7.022;2023-04-06T14:48:26;0.10;;;0.10;;
16654;SDS011;8441;51.344;7.022;2023-04-06T14:50:54;0.10;;;0.10;;
16654;SDS011;8441;51.344;7.022;2023-04-06T14:53:23;0.10;;;0.10;;
16654;SDS011;8441;51.344;7.022;2023-04-06T14:55:51;0.10;;;0.10;;
16654;SDS011;8441;51.344;7.022;2023-04-06T14:58:18;0.10;;;0.10;;
16654;SDS011;8441;51.344;7.022;2023-04-06T15:00:46;0.10;;;0.10;;
16654;SDS011;8441;51.344;7.022;2023-04-06T15:03:13;0.10;;;0.10;;
16654;SDS011;8441;51.344;7.022;2023-04-06T15:05:41;0.10;;;0.10;;
16654;SDS011;8441;51.344;7.022;2023-04-06T15:08:08;0.10;;;0.10;;